sensor_id;sensor_type;location;lat;lon;timestamp;temperature;humidity
55331;DHT22;58851;42.984;20.336;2023-08-30T00:00:54;384.20;128.00
55331;DHT22;58851;42.984;20.336;2023-08-30T00:03:20;384.30;128.00
55331;DHT22;58851;42.984;20.336;2023-08-30T00:05:46;384.30;128.00
55331;DHT22;58851;42.984;20.336;2023-08-30T00:08:12;384.30;128.00
55331;DHT22;58851;42.984;20.336;2023-08-30T00:10:45;384.20;128.00
55331;DHT22;58851;42.984;20.336;2023-08-30T00:13:11;384.20;128.00
55331;DHT22;58851;42.984;20.336;2023-08-30T00:15:37;384.30;128.00
55331;DHT22;58851;42.984;20.336;2023-08-30T00:18:03;384.40;128.00
55331;DHT22;58851;42.984;20.336;2023-08-30T00:20:29;384.20;128.00
55331;DHT22;58851;42.984;20.336;2023-08-30T00:22:55;384.20;128.00
55331;DHT22;58851;42.984;20.336;2023-08-30T00:25:21;384.10;128.00
55331;DHT22;58851;42.984;20.336;2023-08-30T00:27:46;384.20;128.00
55331;DHT22;58851;42.984;20.336;2023-08-30T00:30:12;384.20;128.00
55331;DHT22;58851;42.984;20.336;2023-08-30T00:32:38;384.30;128.00
55331;DHT22;58851;42.984;20.336;2023-08-30T00:35:04;384.20;128.00
55331;DHT22;58851;42.984;20.336;2023-08-30T00:37:30;384.00;128.00
55331;DHT22;58851;42.984;20.336;2023-08-30T00:39:56;384.00;128.00
55331;DHT22;58851;42.984;20.336;2023-08-30T00:42:22;384.20;128.00
55331;DHT22;58851;42.984;20.336;2023-08-30T00:44:47;384.30;128.00
55331;DHT22;58851;42.984;20.336;2023-08-30T00:47:13;384.30;128.00
55331;DHT22;58851;42.984;20.336;2023-08-30T00:49:40;384.40;128.00
55331;DHT22;58851;42.984;20.336;2023-08-30T00:52:08;384.50;128.00
55331;DHT22;58851;42.984;20.336;2023-08-30T00:54:35;384.50;128.00
55331;DHT22;58851;42.984;20.336;2023-08-30T00:57:01;384.60;128.00
55331;DHT22;58851;42.984;20.336;2023-08-30T00:59:27;384.50;128.00
55331;DHT22;58851;42.984;20.336;2023-08-30T01:01:55;384.30;128.00
55331;DHT22;58851;42.984;20.336;2023-08-30T01:04:21;384.30;128.00
55331;DHT22;58851;42.984;20.336;2023-08-30T01:06:48;384.50;128.00
55331;DHT22;58851;42.984;20.336;2023-08-30T01:09:15;384.40;128.00
55331;DHT22;58851;42.984;20.336;2023-08-30T01:11:54;384.30;128.00
55331;DHT22;58851;42.984;20.336;2023-08-30T01:14:25;384.30;128.00
55331;DHT22;58851;42.984;20.336;2023-08-30T01:16:53;384.40;128.00
55331;DHT22;58851;42.984;20.336;2023-08-30T01:19:39;384.30;128.00
55331;DHT22;58851;42.984;20.336;2023-08-30T01:22:49;384.20;128.00
55331;DHT22;58851;42.984;20.336;2023-08-30T01:28:20;384.30;128.00
55331;DHT22;58851;42.984;20.336;2023-08-30T01:30:47;384.50;128.00
55331;DHT22;58851;42.984;20.336;2023-08-30T01:33:15;384.50;128.00
55331;DHT22;58851;42.984;20.336;2023-08-30T01:35:43;384.60;128.00
55331;DHT22;58851;42.984;20.336;2023-08-30T01:38:10;384.50;128.00
55331;DHT22;58851;42.984;20.336;2023-08-30T01:40:39;384.50;128.00
55331;DHT22;58851;42.984;20.336;2023-08-30T01:43:06;384.50;128.00
55331;DHT22;58851;42.984;20.336;2023-08-30T01:45:39;384.60;128.00
55331;DHT22;58851;42.984;20.336;2023-08-30T01:48:08;384.50;128.00
55331;DHT22;58851;42.984;20.336;2023-08-30T01:50:35;384.30;128.00
55331;DHT22;58851;42.984;20.336;2023-08-30T01:53:02;384.50;128.00
55331;DHT22;58851;42.984;20.336;2023-08-30T01:55:29;384.60;128.00
55331;DHT22;58851;42.984;20.336;2023-08-30T01:57:55;384.70;128.00
55331;DHT22;58851;42.984;20.336;2023-08-30T02:00:21;384.70;128.00
55331;DHT22;58851;42.984;20.336;2023-08-30T02:02:48;384.70;128.00
55331;DHT22;58851;42.984;20.336;2023-08-30T02:05:14;384.80;128.00
55331;DHT22;58851;42.984;20.336;2023-08-30T02:07:49;384.90;128.00
55331;DHT22;58851;42.984;20.336;2023-08-30T02:10:22;384.90;128.00
55331;DHT22;58851;42.984;20.336;2023-08-30T02:12:50;409.60;128.00
55331;DHT22;58851;42.984;20.336;2023-08-30T02:15:18;409.60;128.00
55331;DHT22;58851;42.984;20.336;2023-08-30T02:17:45;384.90;128.00
55331;DHT22;58851;42.984;20.336;2023-08-30T02:20:11;409.60;128.00
55331;DHT22;58851;42.984;20.336;2023-08-30T02:22:40;409.60;128.00
55331;DHT22;58851;42.984;20.336;2023-08-30T02:25:06;384.90;128.00
55331;DHT22;58851;42.984;20.336;2023-08-30T02:27:33;384.90;128.00
55331;DHT22;58851;42.984;20.336;2023-08-30T02:30:00;384.90;128.00
55331;DHT22;58851;42.984;20.336;2023-08-30T02:32:26;384.70;128.00
55331;DHT22;58851;42.984;20.336;2023-08-30T02:34:52;384.60;128.00
55331;DHT22;58851;42.984;20.336;2023-08-30T02:37:19;384.70;128.00
55331;DHT22;58851;42.984;20.336;2023-08-30T02:39:45;384.50;128.00
55331;DHT22;58851;42.984;20.336;2023-08-30T02:42:11;384.50;128.00
55331;DHT22;58851;42.984;20.336;2023-08-30T02:44:36;384.50;128.00
55331;DHT22;58851;42.984;20.336;2023-08-30T02:47:02;384.60;128.00
55331;DHT22;58851;42.984;20.336;2023-08-30T02:49:28;384.60;128.00
55331;DHT22;58851;42.984;20.336;2023-08-30T02:51:54;384.60;128.00
55331;DHT22;58851;42.984;20.336;2023-08-30T02:54:20;384.50;128.00
55331;DHT22;58851;42.984;20.336;2023-08-30T02:56:48;384.50;128.00
55331;DHT22;58851;42.984;20.336;2023-08-30T02:59:14;384.40;128.00
55331;DHT22;58851;42.984;20.336;2023-08-30T03:01:39;384.50;128.00
55331;DHT22;58851;42.984;20.336;2023-08-30T03:04:06;384.60;128.00
55331;DHT22;58851;42.984;20.336;2023-08-30T03:06:33;384.50;128.00
55331;DHT22;58851;42.984;20.336;2023-08-30T03:08:59;384.40;128.00
55331;DHT22;58851;42.984;20.336;2023-08-30T03:11:25;384.20;128.00
55331;DHT22;58851;42.984;20.336;2023-08-30T03:13:53;384.30;128.00
55331;DHT22;58851;42.984;20.336;2023-08-30T03:16:19;384.20;128.00
55331;DHT22;58851;42.984;20.336;2023-08-30T03:18:45;384.00;128.00
55331;DHT22;58851;42.984;20.336;2023-08-30T03:21:12;384.00;128.00
55331;DHT22;58851;42.984;20.336;2023-08-30T03:23:38;384.20;128.00
55331;DHT22;58851;42.984;20.336;2023-08-30T03:26:11;384.20;128.00
55331;DHT22;58851;42.984;20.336;2023-08-30T03:28:38;384.30;128.00
55331;DHT22;58851;42.984;20.336;2023-08-30T03:33:38;384.50;128.00
55331;DHT22;58851;42.984;20.336;2023-08-30T03:36:10;384.50;128.00
55331;DHT22;58851;42.984;20.336;2023-08-30T03:38:36;384.50;128.00
55331;DHT22;58851;42.984;20.336;2023-08-30T03:41:03;384.50;128.00
55331;DHT22;58851;42.984;20.336;2023-08-30T03:43:30;384.30;128.00
55331;DHT22;58851;42.984;20.336;2023-08-30T03:45:55;384.40;128.00
55331;DHT22;58851;42.984;20.336;2023-08-30T03:48:22;384.40;128.00
55331;DHT22;58851;42.984;20.336;2023-08-30T03:50:48;384.30;128.00
55331;DHT22;58851;42.984;20.336;2023-08-30T03:53:13;384.30;128.00
55331;DHT22;58851;42.984;20.336;2023-08-30T03:55:40;384.20;128.00
55331;DHT22;58851;42.984;20.336;2023-08-30T03:58:06;384.40;128.00
55331;DHT22;58851;42.984;20.336;2023-08-30T04:00:35;384.50;128.00
55331;DHT22;58851;42.984;20.336;2023-08-30T04:03:01;384.50;128.00
55331;DHT22;58851;42.984;20.336;2023-08-30T04:05:27;384.50;128.00
55331;DHT22;58851;42.984;20.336;2023-08-30T04:07:53;384.40;128.00
55331;DHT22;58851;42.984;20.336;2023-08-30T04:10:18;384.50;128.00
55331;DHT22;58851;42.984;20.336;2023-08-30T04:12:46;384.60;128.00
55331;DHT22;58851;42.984;20.336;2023-08-30T04:15:12;384.70;128.00
55331;DHT22;58851;42.984;20.336;2023-08-30T04:17:38;384.70;128.00
55331;DHT22;58851;42.984;20.336;2023-08-30T04:20:04;384.70;128.00
55331;DHT22;58851;42.984;20.336;2023-08-30T04:22:31;384.80;128.00
55331;DHT22;58851;42.984;20.336;2023-08-30T04:24:56;384.80;128.00
55331;DHT22;58851;42.984;20.336;2023-08-30T04:27:22;384.70;128.00
55331;DHT22;58851;42.984;20.336;2023-08-30T04:29:48;384.80;128.00
55331;DHT22;58851;42.984;20.336;2023-08-30T04:32:14;384.80;128.00
55331;DHT22;58851;42.984;20.336;2023-08-30T04:34:40;384.90;128.00
55331;DHT22;58851;42.984;20.336;2023-08-30T04:37:05;409.60;128.00
55331;DHT22;58851;42.984;20.336;2023-08-30T04:39:31;384.90;128.00
55331;DHT22;58851;42.984;20.336;2023-08-30T04:41:57;384.70;128.00
55331;DHT22;58851;42.984;20.336;2023-08-30T04:44:23;384.80;128.00
55331;DHT22;58851;42.984;20.336;2023-08-30T04:46:50;384.80;128.00
55331;DHT22;58851;42.984;20.336;2023-08-30T04:49:17;384.90;128.00
55331;DHT22;58851;42.984;20.336;2023-08-30T04:51:43;409.60;128.00
55331;DHT22;58851;42.984;20.336;2023-08-30T04:54:09;409.60;128.00
55331;DHT22;58851;42.984;20.336;2023-08-30T04:56:35;409.60;128.00
55331;DHT22;58851;42.984;20.336;2023-08-30T04:59:00;409.70;128.00
55331;DHT22;58851;42.984;20.336;2023-08-30T05:01:30;409.70;128.00
55331;DHT22;58851;42.984;20.336;2023-08-30T05:03:55;409.80;128.00
55331;DHT22;58851;42.984;20.336;2023-08-30T05:06:21;409.80;128.00
55331;DHT22;58851;42.984;20.336;2023-08-30T05:08:47;409.80;128.00
55331;DHT22;58851;42.984;20.336;2023-08-30T05:11:13;409.90;128.00
55331;DHT22;58851;42.984;20.336;2023-08-30T05:13:39;410.10;128.00
55331;DHT22;58851;42.984;20.336;2023-08-30T05:16:05;410.10;128.00
55331;DHT22;58851;42.984;20.336;2023-08-30T05:18:31;410.10;128.00
55331;DHT22;58851;42.984;20.336;2023-08-30T05:20:56;410.20;128.00
55331;DHT22;58851;42.984;20.336;2023-08-30T05:23:22;410.20;128.00
55331;DHT22;58851;42.984;20.336;2023-08-30T05:25:48;410.30;128.00
55331;DHT22;58851;42.984;20.336;2023-08-30T05:28:14;410.30;128.00
55331;DHT22;58851;42.984;20.336;2023-08-30T05:30:42;410.40;128.00
55331;DHT22;58851;42.984;20.336;2023-08-30T05:33:08;410.40;128.00
55331;DHT22;58851;42.984;20.336;2023-08-30T05:35:34;410.50;128.00
55331;DHT22;58851;42.984;20.336;2023-08-30T05:37:59;410.50;128.00
55331;DHT22;58851;42.984;20.336;2023-08-30T05:40:25;435.20;128.00
55331;DHT22;58851;42.984;20.336;2023-08-30T05:42:51;435.20;128.00
55331;DHT22;58851;42.984;20.336;2023-08-30T05:45:17;435.20;128.00
55331;DHT22;58851;42.984;20.336;2023-08-30T05:47:43;435.20;128.00
55331;DHT22;58851;42.984;20.336;2023-08-30T05:50:09;410.50;128.00
55331;DHT22;58851;42.984;20.336;2023-08-30T05:52:35;435.20;128.00
55331;DHT22;58851;42.984;20.336;2023-08-30T05:55:01;435.20;128.00
55331;DHT22;58851;42.984;20.336;2023-08-30T05:57:27;435.30;128.00
55331;DHT22;58851;42.984;20.336;2023-08-30T05:59:59;435.20;128.00
55331;DHT22;58851;42.984;20.336;2023-08-30T06:02:24;435.40;128.00
55331;DHT22;58851;42.984;20.336;2023-08-30T06:04:50;435.40;128.00
55331;DHT22;58851;42.984;20.336;2023-08-30T06:07:16;435.40;128.00
55331;DHT22;58851;42.984;20.336;2023-08-30T06:09:42;435.40;128.00
55331;DHT22;58851;42.984;20.336;2023-08-30T06:12:08;435.50;128.00
55331;DHT22;58851;42.984;20.336;2023-08-30T06:14:34;435.70;128.00
55331;DHT22;58851;42.984;20.336;2023-08-30T06:17:00;435.90;128.00
55331;DHT22;58851;42.984;20.336;2023-08-30T06:19:25;435.90;128.00
55331;DHT22;58851;42.984;20.336;2023-08-30T06:21:51;436.00;128.00
55331;DHT22;58851;42.984;20.336;2023-08-30T06:24:17;436.10;128.00
55331;DHT22;58851;42.984;20.336;2023-08-30T06:26:43;460.80;128.00
55331;DHT22;58851;42.984;20.336;2023-08-30T06:29:09;461.00;128.00
55331;DHT22;58851;42.984;20.336;2023-08-30T06:31:35;461.10;128.00
55331;DHT22;58851;42.984;20.336;2023-08-30T06:34:01;461.10;128.00
55331;DHT22;58851;42.984;20.336;2023-08-30T06:36:26;461.10;128.00
55331;DHT22;58851;42.984;20.336;2023-08-30T06:38:52;461.20;128.00
55331;DHT22;58851;42.984;20.336;2023-08-30T06:41:18;461.10;128.00
55331;DHT22;58851;42.984;20.336;2023-08-30T06:43:44;461.20;128.00
55331;DHT22;58851;42.984;20.336;2023-08-30T06:46:10;461.20;128.00
55331;DHT22;58851;42.984;20.336;2023-08-30T06:48:36;461.30;128.00
55331;DHT22;58851;42.984;20.336;2023-08-30T06:51:02;461.40;128.00
55331;DHT22;58851;42.984;20.336;2023-08-30T06:53:28;461.40;128.00
55331;DHT22;58851;42.984;20.336;2023-08-30T06:56:00;461.60;128.00
55331;DHT22;58851;42.984;20.336;2023-08-30T06:58:26;461.70;128.00
55331;DHT22;58851;42.984;20.336;2023-08-30T07:00:52;486.50;128.00
55331;DHT22;58851;42.984;20.336;2023-08-30T07:03:18;486.60;128.00
55331;DHT22;58851;42.984;20.336;2023-08-30T07:05:44;486.60;128.00
55331;DHT22;58851;42.984;20.336;2023-08-30T07:08:15;486.70;128.00
55331;DHT22;58851;42.984;20.336;2023-08-30T07:10:41;486.80;128.00
55331;DHT22;58851;42.984;20.336;2023-08-30T07:13:07;486.90;128.00
55331;DHT22;58851;42.984;20.336;2023-08-30T07:15:40;486.90;128.00
55331;DHT22;58851;42.984;20.336;2023-08-30T07:18:06;486.90;128.00
55331;DHT22;58851;42.984;20.336;2023-08-30T07:20:32;487.00;128.00
55331;DHT22;58851;42.984;20.336;2023-08-30T07:22:59;487.10;128.00
55331;DHT22;58851;42.984;20.336;2023-08-30T07:25:25;487.30;128.00
55331;DHT22;58851;42.984;20.336;2023-08-30T07:27:55;512.00;460.80
55331;DHT22;58851;42.984;20.336;2023-08-30T07:30:21;512.20;307.20
55331;DHT22;58851;42.984;20.336;2023-08-30T07:32:46;512.30;128.00
55331;DHT22;58851;42.984;20.336;2023-08-30T07:35:13;512.50;128.00
55331;DHT22;58851;42.984;20.336;2023-08-30T07:37:39;512.30;128.00
55331;DHT22;58851;42.984;20.336;2023-08-30T07:40:05;512.40;128.00
55331;DHT22;58851;42.984;20.336;2023-08-30T07:42:31;512.60;128.00
55331;DHT22;58851;42.984;20.336;2023-08-30T07:44:56;512.80;128.00
55331;DHT22;58851;42.984;20.336;2023-08-30T07:47:22;537.60;128.00
55331;DHT22;58851;42.984;20.336;2023-08-30T07:49:48;537.70;128.00
55331;DHT22;58851;42.984;20.336;2023-08-30T07:52:14;538.00;128.00
55331;DHT22;58851;42.984;20.336;2023-08-30T07:54:40;538.20;128.00
55331;DHT22;58851;42.984;20.336;2023-08-30T07:57:07;538.40;128.00
55331;DHT22;58851;42.984;20.336;2023-08-30T07:59:34;538.40;128.00
55331;DHT22;58851;42.984;20.336;2023-08-30T08:02:01;563.20;128.00
55331;DHT22;58851;42.984;20.336;2023-08-30T08:04:27;563.30;128.00
55331;DHT22;58851;42.984;20.336;2023-08-30T08:06:52;563.70;128.00
55331;DHT22;58851;42.984;20.336;2023-08-30T08:09:18;564.00;230.40
55331;DHT22;58851;42.984;20.336;2023-08-30T08:11:44;564.10;128.00
55331;DHT22;58851;42.984;20.336;2023-08-30T08:14:10;588.80;691.20
55331;DHT22;58851;42.984;20.336;2023-08-30T08:16:36;589.10;128.00
55331;DHT22;58851;42.984;20.336;2023-08-30T08:19:02;589.30;128.00
55331;DHT22;58851;42.984;20.336;2023-08-30T08:21:29;589.50;128.00
55331;DHT22;58851;42.984;20.336;2023-08-30T08:23:55;589.50;128.00
55331;DHT22;58851;42.984;20.336;2023-08-30T08:26:21;589.30;128.00
55331;DHT22;58851;42.984;20.336;2023-08-30T08:28:47;589.30;128.00
55331;DHT22;58851;42.984;20.336;2023-08-30T08:31:13;589.30;128.00
55331;DHT22;58851;42.984;20.336;2023-08-30T08:33:40;589.70;128.00
55331;DHT22;58851;42.984;20.336;2023-08-30T08:36:06;614.50;128.00
55331;DHT22;58851;42.984;20.336;2023-08-30T08:38:31;614.70;128.00
55331;DHT22;58851;42.984;20.336;2023-08-30T08:41:06;614.80;128.00
55331;DHT22;58851;42.984;20.336;2023-08-30T08:43:33;614.80;128.00
55331;DHT22;58851;42.984;20.336;2023-08-30T08:46:03;614.80;128.00
55331;DHT22;58851;42.984;20.336;2023-08-30T08:48:35;614.80;128.00
55331;DHT22;58851;42.984;20.336;2023-08-30T08:51:03;614.60;128.00
55331;DHT22;58851;42.984;20.336;2023-08-30T08:53:29;614.50;128.00
55331;DHT22;58851;42.984;20.336;2023-08-30T08:55:56;614.40;128.00
55331;DHT22;58851;42.984;20.336;2023-08-30T08:58:24;614.40;128.00
55331;DHT22;58851;42.984;20.336;2023-08-30T09:00:50;614.40;128.00
55331;DHT22;58851;42.984;20.336;2023-08-30T09:03:17;589.60;128.00
55331;DHT22;58851;42.984;20.336;2023-08-30T09:05:44;589.60;128.00
55331;DHT22;58851;42.984;20.336;2023-08-30T09:08:12;589.70;128.00
55331;DHT22;58851;42.984;20.336;2023-08-30T09:10:39;589.50;128.00
55331;DHT22;58851;42.984;20.336;2023-08-30T09:13:06;589.30;128.00
55331;DHT22;58851;42.984;20.336;2023-08-30T09:15:32;589.40;128.00
55331;DHT22;58851;42.984;20.336;2023-08-30T09:17:58;614.40;128.00
55331;DHT22;58851;42.984;20.336;2023-08-30T09:20:24;614.60;128.00
55331;DHT22;58851;42.984;20.336;2023-08-30T09:22:50;614.70;128.00
55331;DHT22;58851;42.984;20.336;2023-08-30T09:25:28;614.90;128.00
55331;DHT22;58851;42.984;20.336;2023-08-30T09:27:58;615.20;128.00
55331;DHT22;58851;42.984;20.336;2023-08-30T09:30:27;614.90;128.00
55331;DHT22;58851;42.984;20.336;2023-08-30T09:32:53;615.00;128.00
55331;DHT22;58851;42.984;20.336;2023-08-30T09:35:19;615.20;128.00
55331;DHT22;58851;42.984;20.336;2023-08-30T09:37:45;640.10;128.00
55331;DHT22;58851;42.984;20.336;2023-08-30T09:40:11;640.20;128.00
55331;DHT22;58851;42.984;20.336;2023-08-30T09:42:42;640.10;128.00
55331;DHT22;58851;42.984;20.336;2023-08-30T09:45:23;640.00;128.00
55331;DHT22;58851;42.984;20.336;2023-08-30T09:47:49;615.20;128.00
55331;DHT22;58851;42.984;20.336;2023-08-30T09:50:20;640.00;128.00
55331;DHT22;58851;42.984;20.336;2023-08-30T09:52:49;615.20;128.00
55331;DHT22;58851;42.984;20.336;2023-08-30T09:55:18;614.80;128.00
55331;DHT22;58851;42.984;20.336;2023-08-30T09:57:44;614.80;128.00
55331;DHT22;58851;42.984;20.336;2023-08-30T10:00:10;615.20;128.00
55331;DHT22;58851;42.984;20.336;2023-08-30T10:02:41;615.20;128.00
55331;DHT22;58851;42.984;20.336;2023-08-30T10:05:10;640.00;128.00
55331;DHT22;58851;42.984;20.336;2023-08-30T10:07:37;640.30;128.00
55331;DHT22;58851;42.984;20.336;2023-08-30T10:10:04;640.30;128.00
55331;DHT22;58851;42.984;20.336;2023-08-30T10:12:31;640.30;128.00
55331;DHT22;58851;42.984;20.336;2023-08-30T10:14:58;640.00;128.00
55331;DHT22;58851;42.984;20.336;2023-08-30T10:17:27;615.20;128.00
55331;DHT22;58851;42.984;20.336;2023-08-30T10:19:54;615.20;128.00
55331;DHT22;58851;42.984;20.336;2023-08-30T10:22:21;614.90;128.00
55331;DHT22;58851;42.984;20.336;2023-08-30T10:25:00;614.90;128.00
55331;DHT22;58851;42.984;20.336;2023-08-30T10:27:29;614.80;128.00
55331;DHT22;58851;42.984;20.336;2023-08-30T10:29:56;614.70;128.00
55331;DHT22;58851;42.984;20.336;2023-08-30T10:32:24;614.90;128.00
55331;DHT22;58851;42.984;20.336;2023-08-30T10:34:51;615.00;128.00
55331;DHT22;58851;42.984;20.336;2023-08-30T10:37:22;615.00;128.00
55331;DHT22;58851;42.984;20.336;2023-08-30T10:39:49;614.90;128.00
55331;DHT22;58851;42.984;20.336;2023-08-30T10:42:16;614.60;128.00
55331;DHT22;58851;42.984;20.336;2023-08-30T10:45:06;589.70;128.00
55331;DHT22;58851;42.984;20.336;2023-08-30T10:47:36;589.60;128.00
55331;DHT22;58851;42.984;20.336;2023-08-30T10:50:09;614.40;128.00
55331;DHT22;58851;42.984;20.336;2023-08-30T10:52:36;614.60;128.00
55331;DHT22;58851;42.984;20.336;2023-08-30T10:57:36;614.90;128.00
55331;DHT22;58851;42.984;20.336;2023-08-30T11:00:07;614.80;128.00
55331;DHT22;58851;42.984;20.336;2023-08-30T11:02:34;615.00;128.00
55331;DHT22;58851;42.984;20.336;2023-08-30T11:05:01;615.00;128.00
55331;DHT22;58851;42.984;20.336;2023-08-30T11:07:31;615.00;128.00
55331;DHT22;58851;42.984;20.336;2023-08-30T11:09:57;615.10;128.00
55331;DHT22;58851;42.984;20.336;2023-08-30T11:12:23;640.00;128.00
55331;DHT22;58851;42.984;20.336;2023-08-30T11:14:52;640.40;128.00
55331;DHT22;58851;42.984;20.336;2023-08-30T11:17:19;640.50;128.00
55331;DHT22;58851;42.984;20.336;2023-08-30T11:19:45;640.50;128.00
55331;DHT22;58851;42.984;20.336;2023-08-30T11:22:12;640.20;128.00
55331;DHT22;58851;42.984;20.336;2023-08-30T11:24:39;640.20;128.00
55331;DHT22;58851;42.984;20.336;2023-08-30T11:27:05;640.20;128.00
55331;DHT22;58851;42.984;20.336;2023-08-30T11:29:32;640.10;128.00
55331;DHT22;58851;42.984;20.336;2023-08-30T11:31:57;640.30;128.00
55331;DHT22;58851;42.984;20.336;2023-08-30T11:34:23;640.30;128.00
55331;DHT22;58851;42.984;20.336;2023-08-30T11:36:50;640.60;128.00
55331;DHT22;58851;42.984;20.336;2023-08-30T11:39:19;640.30;128.00
55331;DHT22;58851;42.984;20.336;2023-08-30T11:41:46;640.20;128.00
55331;DHT22;58851;42.984;20.336;2023-08-30T11:44:12;640.00;128.00
55331;DHT22;58851;42.984;20.336;2023-08-30T11:46:38;640.10;128.00
55331;DHT22;58851;42.984;20.336;2023-08-30T11:49:04;640.20;128.00
55331;DHT22;58851;42.984;20.336;2023-08-30T11:51:30;640.60;128.00
55331;DHT22;58851;42.984;20.336;2023-08-30T11:53:57;665.90;153.60
55331;DHT22;58851;42.984;20.336;2023-08-30T11:56:23;665.90;153.60
55331;DHT22;58851;42.984;20.336;2023-08-30T11:58:49;666.40;153.60
55331;DHT22;58851;42.984;20.336;2023-08-30T12:01:18;666.40;742.40
55331;DHT22;58851;42.984;20.336;2023-08-30T12:03:45;691.30;742.40
55331;DHT22;58851;42.984;20.336;2023-08-30T12:06:16;691.30;691.20
55331;DHT22;58851;42.984;20.336;2023-08-30T12:08:42;666.50;460.80
55331;DHT22;58851;42.984;20.336;2023-08-30T12:11:22;666.40;742.40
55331;DHT22;58851;42.984;20.336;2023-08-30T12:13:47;691.50;358.40
55331;DHT22;58851;42.984;20.336;2023-08-30T12:16:17;691.60;153.60
55331;DHT22;58851;42.984;20.336;2023-08-30T12:18:43;691.50;204.80
55331;DHT22;58851;42.984;20.336;2023-08-30T12:21:09;691.80;179.20
55331;DHT22;58851;42.984;20.336;2023-08-30T12:23:35;692.10;153.60
55331;DHT22;58851;42.984;20.336;2023-08-30T12:28:36;716.80;179.20
55331;DHT22;58851;42.984;20.336;2023-08-30T12:31:02;716.90;179.20
55331;DHT22;58851;42.984;20.336;2023-08-30T12:33:37;717.20;179.20
55331;DHT22;58851;42.984;20.336;2023-08-30T12:36:18;691.90;153.60
55331;DHT22;58851;42.984;20.336;2023-08-30T12:39:07;691.50;153.60
55331;DHT22;58851;42.984;20.336;2023-08-30T12:41:34;691.40;153.60
55331;DHT22;58851;42.984;20.336;2023-08-30T12:44:01;691.70;153.60
55331;DHT22;58851;42.984;20.336;2023-08-30T12:46:27;691.70;153.60
55331;DHT22;58851;42.984;20.336;2023-08-30T12:48:53;717.00;179.20
55331;DHT22;58851;42.984;20.336;2023-08-30T12:51:18;717.30;179.20
55331;DHT22;58851;42.984;20.336;2023-08-30T12:53:44;717.30;179.20
55331;DHT22;58851;42.984;20.336;2023-08-30T12:56:10;717.40;179.20
55331;DHT22;58851;42.984;20.336;2023-08-30T12:58:36;717.70;179.20
55331;DHT22;58851;42.984;20.336;2023-08-30T13:01:01;717.70;179.20
55331;DHT22;58851;42.984;20.336;2023-08-30T13:03:28;717.70;179.20
55331;DHT22;58851;42.984;20.336;2023-08-30T13:05:53;742.50;204.80
55331;DHT22;58851;42.984;20.336;2023-08-30T13:08:19;742.70;204.80
55331;DHT22;58851;42.984;20.336;2023-08-30T13:10:45;742.80;204.80
55331;DHT22;58851;42.984;20.336;2023-08-30T13:13:11;743.10;204.80
55331;DHT22;58851;42.984;20.336;2023-08-30T13:15:36;742.60;204.80
55331;DHT22;58851;42.984;20.336;2023-08-30T13:18:03;717.40;179.20
55331;DHT22;58851;42.984;20.336;2023-08-30T13:20:29;717.00;179.20
55331;DHT22;58851;42.984;20.336;2023-08-30T13:22:55;716.80;179.20
55331;DHT22;58851;42.984;20.336;2023-08-30T13:25:21;691.50;153.60
55331;DHT22;58851;42.984;20.336;2023-08-30T13:27:46;691.60;153.60
55331;DHT22;58851;42.984;20.336;2023-08-30T13:30:13;691.30;153.60
55331;DHT22;58851;42.984;20.336;2023-08-30T13:32:39;691.20;153.60
55331;DHT22;58851;42.984;20.336;2023-08-30T13:35:05;665.90;153.60
55331;DHT22;58851;42.984;20.336;2023-08-30T13:37:31;640.90;153.60
55331;DHT22;58851;42.984;20.336;2023-08-30T13:39:56;640.50;409.60
55331;DHT22;58851;42.984;20.336;2023-08-30T13:42:22;640.20;486.40
55331;DHT22;58851;42.984;20.336;2023-08-30T13:44:51;640.00;128.00
55331;DHT22;58851;42.984;20.336;2023-08-30T13:47:17;615.00;128.00
55331;DHT22;58851;42.984;20.336;2023-08-30T13:49:43;615.10;128.00
55331;DHT22;58851;42.984;20.336;2023-08-30T13:52:09;640.20;128.00
55331;DHT22;58851;42.984;20.336;2023-08-30T13:54:34;640.60;128.00
55331;DHT22;58851;42.984;20.336;2023-08-30T13:57:02;640.70;691.20
55331;DHT22;58851;42.984;20.336;2023-08-30T13:59:28;665.60;563.20
55331;DHT22;58851;42.984;20.336;2023-08-30T14:01:56;665.60;384.00
55331;DHT22;58851;42.984;20.336;2023-08-30T14:04:23;666.40;281.60
55331;DHT22;58851;42.984;20.336;2023-08-30T14:06:50;716.90;179.20
55331;DHT22;58851;42.984;20.336;2023-08-30T14:09:16;716.90;179.20
55331;DHT22;58851;42.984;20.336;2023-08-30T14:11:41;716.80;179.20
55331;DHT22;58851;42.984;20.336;2023-08-30T14:14:07;691.60;153.60
55331;DHT22;58851;42.984;20.336;2023-08-30T14:16:33;666.40;153.60
55331;DHT22;58851;42.984;20.336;2023-08-30T14:18:59;665.80;153.60
55331;DHT22;58851;42.984;20.336;2023-08-30T14:21:26;666.10;153.60
55331;DHT22;58851;42.984;20.336;2023-08-30T14:23:52;666.10;256.00
55331;DHT22;58851;42.984;20.336;2023-08-30T14:26:19;666.10;307.20
55331;DHT22;58851;42.984;20.336;2023-08-30T14:28:44;666.00;281.60
55331;DHT22;58851;42.984;20.336;2023-08-30T14:31:10;666.10;153.60
55331;DHT22;58851;42.984;20.336;2023-08-30T14:33:37;665.80;281.60
55331;DHT22;58851;42.984;20.336;2023-08-30T14:36:03;640.70;716.80
55331;DHT22;58851;42.984;20.336;2023-08-30T14:38:29;640.60;691.20
55331;DHT22;58851;42.984;20.336;2023-08-30T14:40:59;640.90;128.00
55331;DHT22;58851;42.984;20.336;2023-08-30T14:43:26;640.70;128.00
55331;DHT22;58851;42.984;20.336;2023-08-30T14:45:59;640.90;716.80
55331;DHT22;58851;42.984;20.336;2023-08-30T14:48:25;665.80;691.20
55331;DHT22;58851;42.984;20.336;2023-08-30T14:50:51;665.80;537.60
55331;DHT22;58851;42.984;20.336;2023-08-30T14:53:17;640.70;128.00
55331;DHT22;58851;42.984;20.336;2023-08-30T14:55:46;640.20;691.20
55331;DHT22;58851;42.984;20.336;2023-08-30T14:58:12;640.00;128.00